Ciampino Airport LIRA

Flugplatz Daten

Name: Ciampino Airport

Ident: LIRA

Lat: 41,79940033

Long: 12,59490013

Platzhöhe: 427 ft

IataCode: CIA

City: Roma

Metar

2022/08/13 17:20
LIRA 131720Z 28008KT 9999 FEW030 26/17 Q1011

Taf

2022/08/13 12:00
TAF LIRA 131100Z 1312/1412 24010KT 9999 SCT050
TEMPO 1312/1315 3000 TSRA FEW025CB
BECMG 1316/1318 VRB05KT
TEMPO 1318/1321 SHRA
Gewünschte Webcam nicht vorhanden? Dann fügen Sie eine hinzu. Sie wird dann so schnell wie möglich freigeschaltet
Url: Title: